Overton Beach, Nevada
Current Conditions -  °F | °C
As of 11:58 AM on Wednesday 28 Jan 2015 (Local Time) from KLSV Reporting Station
Clear Clear  
Wind Chill: 60°   Ceiling: Unl
Heat Index: 60°   Visibility: 10mi
Dew Point: 48°   Wind: 3mph
Humidity: 63%   Direction: NA
Pressure: 30.22"   Gusts: NA
Location:  36.5809°N, 114.605°W
Report Text: KLSV 281958Z AUTO VRB03KT 10SM CLR 16/09 A3022 RMK AO2 SLP227 T01580088 $
Loading
Personal Weather Stations






























Interactive Weather Map New forecast layout! Learn more

10-Day Weather Forecast

Advertisements
Track Severe Weather on mobile